Portada
METAR-TAF:

METAR-TAF

Aeropuertos :

Lawrence Municipal Airport

Lawrence, Kansas, Estados Unidos

latitud: 39-00-30N, longitud: 095-12-42W, altitud: 253 m

Observación

El informe se hizo hace 40 minutos, a las 01:52 UTC
Viento calma
Temperatura -2°C
Humedad 74%
Presión 1029 hPa
Visibilidad: 16.1 km
Cielo despejado

METAR: KLWC 190152Z AUTO 00000KT 10SM CLR M02/M06 A3040 RMK AO2 SLP305 T10221061

Hora: 20:32 (02:32 UTC)


TAF: falta

Observaciones y pronósticos meteorológicos de más de 4000 aeropuertos (mensajes METAR y TAF).

Los puntos amarillos y rojos representan las estaciones disponibles.

Ponga el ratón en el punto deseado para ver el nombre de la estación.

Haga clic para ver las observaciones y los pronósticos meteorológicos.

Para cambiar el mapa : haga clic en los botones verdes con una cruz de color negro para hacer un zoom, en el botón verde con un guión para alejar o en las flechas verdes para mapas adyacentes.


METAR-TAF: